Volgo-don 159 — VD159 — position and weather

sailwx.info

Track history (hours):
 
Tides and Currents Weather Stations Pressure Air Temp Water Temp Dewpoint Dewpoint Depression Visibility Wind Speed Wind Dir Waves Ship Positions

Volgo-don 159

Last reported at 2018-Aug-15 08:11 UTC. Time now 2018-Nov-14 04:24 UTC.
Position N 45°10' E 036°32'.
Warning: this ship's position is months out of date.

Length 138 m; draft 3.5 m.

Type: Cargo ship. MMSI: 273344210.

Date/timePositionNaut miles runAvg speedWind from/ knotsBaromVisibWave heightAir tempDewpointWater temp
2018-Aug-15 08:11N 45°10' E 036°32'0 0.1
2018-Aug-15 07:52N 45°10' E 036°32'0 0.0
2018-Aug-15 07:27N 45°10' E 036°32'0 0.0
2018-Aug-15 06:57N 45°10' E 036°32'0 0.0
2018-Aug-15 06:25N 45°10' E 036°32'0 0.0
2018-Aug-15 05:59N 45°10' E 036°32'0 0.0
2018-Aug-15 05:28N 45°10' E 036°32'1 0.1
2018-Aug-14 15:30N 45°09' E 036°33'0 0.0
2018-Aug-14 14:42N 45°09' E 036°33'0 0.0
2018-Aug-14 14:27N 45°09' E 036°33'0 0.0
2018-Aug-14 13:57N 45°09' E 036°32'0 0.2
2018-Aug-14 13:24N 45°09' E 036°32'2 4.3
2018-Aug-14 12:59N 45°10' E 036°30'3 5.6
2018-Aug-14 12:30N 45°12' E 036°28'3 6.7
2018-Aug-14 12:01N 45°16' E 036°28'3 6.3
2018-Aug-14 11:30N 45°18' E 036°30'3 5.5
2018-Aug-14 11:00N 45°19' E 036°34'3 5.8
2018-Aug-14 10:30N 45°20' E 036°38'3 5.4
2018-Aug-14 10:00N 45°22' E 036°40'3 5.9
2018-Aug-14 09:30N 45°25' E 036°41'3 5.9
2018-Aug-14 09:00N 45°27' E 036°44'4 7.0
2018-Aug-14 08:30N 45°29' E 036°48'1 2.3
2018-Aug-14 07:57N 45°30' E 036°50'0 0.0
2018-Aug-14 07:00N 45°30' E 036°50'0 0.0
2018-Aug-14 05:56N 45°30' E 036°50'0 0.0
2018-Aug-14 05:26N 45°30' E 036°50'0 0.0
2018-Aug-14 05:00N 45°30' E 036°50'0 0.0
2018-Aug-14 04:30N 45°30' E 036°50'0 0.0
2018-Aug-13 07:14N 45°30' E 036°50'  
Track history (hours):
 
Tides and Currents Weather Stations Pressure Air Temp Water Temp Dewpoint Dewpoint Depression Visibility Wind Speed Wind Dir Waves Ship Positions

Volgo-don 159

Last reported at 2018-Aug-15 08:11 UTC. Time now 2018-Nov-14 04:24 UTC.
Position N 45°10' E 036°32'.
Warning: this ship's position is months out of date.

Length 138 m; draft 3.5 m.

Type: Cargo ship. MMSI: 273344210.

Date/timePositionNaut miles runAvg speedWind from/ knotsBaromVisibWave heightAir tempDewpointWater temp
2018-Aug-15 08:11N 45°10' E 036°32'0 0.1
2018-Aug-15 07:52N 45°10' E 036°32'0 0.0
2018-Aug-15 07:27N 45°10' E 036°32'0 0.0
2018-Aug-15 06:57N 45°10' E 036°32'0 0.0
2018-Aug-15 06:25N 45°10' E 036°32'0 0.0
2018-Aug-15 05:59N 45°10' E 036°32'0 0.0
2018-Aug-15 05:28N 45°10' E 036°32'1 0.1
2018-Aug-14 15:30N 45°09' E 036°33'0 0.0
2018-Aug-14 14:42N 45°09' E 036°33'0 0.0
2018-Aug-14 14:27N 45°09' E 036°33'0 0.0
2018-Aug-14 13:57N 45°09' E 036°32'0 0.2
2018-Aug-14 13:24N 45°09' E 036°32'2 4.3
2018-Aug-14 12:59N 45°10' E 036°30'3 5.6
2018-Aug-14 12:30N 45°12' E 036°28'3 6.7
2018-Aug-14 12:01N 45°16' E 036°28'3 6.3
2018-Aug-14 11:30N 45°18' E 036°30'3 5.5
2018-Aug-14 11:00N 45°19' E 036°34'3 5.8
2018-Aug-14 10:30N 45°20' E 036°38'3 5.4
2018-Aug-14 10:00N 45°22' E 036°40'3 5.9
2018-Aug-14 09:30N 45°25' E 036°41'3 5.9
2018-Aug-14 09:00N 45°27' E 036°44'4 7.0
2018-Aug-14 08:30N 45°29' E 036°48'1 2.3
2018-Aug-14 07:57N 45°30' E 036°50'0 0.0
2018-Aug-14 07:00N 45°30' E 036°50'0 0.0
2018-Aug-14 05:56N 45°30' E 036°50'0 0.0
2018-Aug-14 05:26N 45°30' E 036°50'0 0.0
2018-Aug-14 05:00N 45°30' E 036°50'0 0.0
2018-Aug-14 04:30N 45°30' E 036°50'0 0.0
2018-Aug-13 07:14N 45°30' E 036°50'  

Dump ship's entire track history